Time;durP1;ratioP1;P1;durP2;ratioP2;P2;SDS_P1;SDS_P2;PMS_P1;PMS_P2;Temp;Humidity;BMP_temperature;BMP_pressure;BME280_temperature;BME280_humidity;BME280_pressure;Samples;Min_cycle;Max_cycle;Signal;HPM_P1;HPM_P2
2022/05/27 00:00:05;;;;;;;11.80;8.90;;;;;;;20.88;72.46;95393.81;5115109;28;20872;-77
2022/05/27 00:02:32;;;;;;;9.40;8.50;;;;;;;20.85;72.45;95396.84;5115239;28;20478;-77
2022/05/27 00:04:59;;;;;;;10.03;9.13;;;;;;;20.84;72.61;95397.88;5114721;28;20922;-77
2022/05/27 00:07:26;;;;;;;10.03;8.93;;;;;;;20.81;72.61;95392.88;5114640;28;20449;-77
2022/05/27 00:09:54;;;;;;;10.40;9.40;;;;;;;20.78;72.73;95392.41;5114794;28;20439;-77
2022/05/27 00:12:21;;;;;;;10.70;9.13;;;;;;;20.74;72.18;95391.94;5115021;28;20449;-77
2022/05/27 00:14:48;;;;;;;22.93;9.97;;;;;;;20.74;72.46;95389.25;5114568;28;20447;-77
2022/05/27 00:17:15;;;;;;;12.70;9.20;;;;;;;20.71;72.53;95389.63;5114680;28;20966;-77
2022/05/27 00:19:42;;;;;;;17.00;9.87;;;;;;;20.69;72.69;95394.31;5114830;28;20439;-77
2022/05/27 00:22:09;;;;;;;10.30;9.20;;;;;;;20.65;72.65;95393.03;5114455;28;20478;-77
2022/05/27 00:24:37;;;;;;;13.33;10.83;;;;;;;20.66;72.35;95392.00;5114707;28;20443;-76
2022/05/27 00:27:08;;;;;;;10.93;9.83;;;;;;;20.62;72.68;95390.72;5114755;28;20443;-77
2022/05/27 00:29:35;;;;;;;13.23;10.47;;;;;;;20.60;73.91;95398.06;5114449;28;20482;-77
2022/05/27 00:32:02;;;;;;;11.90;10.77;;;;;;;20.58;73.67;95395.59;5114546;28;21001;-77
2022/05/27 00:34:29;;;;;;;13.07;9.57;;;;;;;20.56;73.63;95386.09;5114209;28;20442;-77
2022/05/27 00:36:56;;;;;;;14.90;9.97;;;;;;;20.54;73.58;95385.47;5114137;28;20522;-77
2022/05/27 00:39:23;;;;;;;9.27;8.37;;;;;;;20.51;73.55;95383.13;5114135;28;20986;-77
2022/05/27 00:41:50;;;;;;;11.30;9.97;;;;;;;20.40;73.96;95376.38;5114117;28;20500;-77
2022/05/27 00:44:18;;;;;;;15.70;9.07;;;;;;;20.42;73.91;95380.53;5114323;28;20811;-77
2022/05/27 00:46:47;;;;;;;10.20;9.27;;;;;;;20.24;74.81;95387.97;5113881;28;20434;-77
2022/05/27 00:49:19;;;;;;;10.97;9.90;;;;;;;20.25;74.82;95394.97;5113818;28;20813;-77
2022/05/27 00:51:50;;;;;;;10.07;9.07;;;;;;;20.27;74.91;95384.97;5114014;28;20533;-77
2022/05/27 00:54:19;;;;;;;19.37;9.43;;;;;;;20.27;75.17;95390.28;5113742;28;20439;-77
2022/05/27 00:56:52;;;;;;;12.00;10.10;;;;;;;20.28;75.28;95388.47;5113928;28;20443;-77
2022/05/27 00:59:26;;;;;;;13.80;9.13;;;;;;;20.30;75.37;95389.09;5113812;28;20933;-77
2022/05/27 01:01:54;;;;;;;11.67;9.33;;;;;;;20.30;75.23;95387.25;5113411;28;20482;-77
2022/05/27 01:04:22;;;;;;;10.63;9.40;;;;;;;20.32;75.28;95387.09;5114029;28;20447;-77
2022/05/27 01:06:49;;;;;;;12.20;9.43;;;;;;;20.32;75.39;95393.25;5113705;28;20443;-77
2022/05/27 01:09:16;;;;;;;10.97;9.00;;;;;;;20.28;75.68;95388.47;5113610;28;20442;-77
2022/05/27 01:12:01;;;;;;;11.63;9.20;;;;;;;20.24;75.02;95384.47;5113346;28;20445;-76
2022/05/27 01:14:42;;;;;;;15.30;10.93;;;;;;;20.22;75.22;95387.31;5096095;28;20439;-77
2022/05/27 01:17:16;;;;;;;12.80;9.87;;;;;;;20.19;75.21;95384.16;5113543;28;20439;-77
2022/05/27 01:20:19;;;;;;;15.10;9.70;;;;;;;20.13;75.19;95375.06;5113320;28;20450;-77
2022/05/27 01:23:03;;;;;;;15.03;9.17;;;;;;;20.04;75.16;95365.47;5030476;28;20486;-77
2022/05/27 01:26:21;;;;;;;11.10;9.70;;;;;;;20.05;74.99;95377.78;5027957;28;20549;-77
2022/05/27 01:28:53;;;;;;;10.50;9.40;;;;;;;19.97;74.76;95368.00;5030459;28;20578;-77
2022/05/27 01:31:28;;;;;;;10.27;8.70;;;;;;;19.88;74.74;95363.72;5030286;28;20812;-77
2022/05/27 01:34:04;;;;;;;10.77;9.57;;;;;;;19.88;74.87;95360.22;5030282;28;20452;-77
2022/05/27 01:36:41;;;;;;;11.57;8.90;;;;;;;19.85;74.92;95363.25;5030380;28;20454;-76
2022/05/27 01:39:15;;;;;;;9.50;8.60;;;;;;;19.86;74.97;95367.56;5013823;28;20434;-77
2022/05/27 01:41:48;;;;;;;9.73;8.73;;;;;;;19.88;74.85;95365.53;5030442;28;20489;-77
2022/05/27 01:44:22;;;;;;;9.60;8.47;;;;;;;19.90;74.82;95363.53;5030315;28;20778;-77
2022/05/27 01:46:50;;;;;;;12.53;11.23;;;;;;;19.88;74.55;95363.72;5030307;28;20554;-77
2022/05/27 01:49:26;;;;;;;17.40;9.90;;;;;;;19.82;74.94;95355.59;5030040;28;20442;-77
2022/05/27 01:51:59;;;;;;;9.90;8.90;;;;;;;19.80;74.88;95361.09;5030321;28;20449;-77
2022/05/27 01:54:36;;;;;;;13.60;9.67;;;;;;;19.79;74.87;95368.25;5030100;28;20590;-77
2022/05/27 01:57:08;;;;;;;13.63;9.00;;;;;;;19.71;75.23;95363.00;5030415;28;20459;-77
2022/05/27 01:59:45;;;;;;;10.90;8.97;;;;;;;19.70;74.94;95373.81;5061988;28;20451;-76
2022/05/27 02:02:17;;;;;;;10.60;9.57;;;;;;;19.68;75.07;95362.50;5112735;28;20527;-77
2022/05/27 02:04:49;;;;;;;10.23;9.23;;;;;;;19.61;75.26;95364.19;5113027;28;20450;-76
2022/05/27 02:07:20;;;;;;;12.47;9.43;;;;;;;19.62;75.46;95366.69;5113157;28;20439;-77
2022/05/27 02:09:52;;;;;;;13.17;9.00;;;;;;;19.57;75.40;95360.22;5113009;28;20443;-77
2022/05/27 02:12:24;;;;;;;10.20;8.37;;;;;;;19.52;75.47;95370.53;5112811;28;20443;-77
2022/05/27 02:14:55;;;;;;;10.60;8.70;;;;;;;19.45;75.56;95370.41;5112885;28;20447;-77
2022/05/27 02:17:27;;;;;;;13.80;8.40;;;;;;;19.40;75.82;95362.09;5113021;28;20475;-76
2022/05/27 02:20:00;;;;;;;8.63;7.83;;;;;;;19.38;75.70;95361.44;5112990;28;20446;-77
2022/05/27 02:22:30;;;;;;;10.10;8.70;;;;;;;19.34;75.78;95354.78;5112513;28;20483;-77
2022/05/27 02:25:01;;;;;;;17.63;8.10;;;;;;;19.29;75.20;95360.63;5112900;28;20445;-77
2022/05/27 02:27:32;;;;;;;19.80;9.17;;;;;;;19.24;75.22;95356.84;5112738;28;20500;-77
2022/05/27 02:30:05;;;;;;;12.57;7.60;;;;;;;19.19;74.93;95355.53;5112870;28;20439;-77
2022/05/27 02:32:38;;;;;;;7.60;6.80;;;;;;;19.18;74.58;95361.84;5080174;28;20459;-77
2022/05/27 02:35:09;;;;;;;10.30;8.30;;;;;;;19.12;74.77;95364.38;5116630;28;20939;-77
2022/05/27 02:37:39;;;;;;;16.13;9.10;;;;;;;19.04;74.97;95364.38;5116802;28;20439;-76
2022/05/27 02:40:10;;;;;;;10.70;7.97;;;;;;;19.02;75.39;95363.72;5116679;28;20443;-77
2022/05/27 02:42:45;;;;;;;9.17;8.03;;;;;;;19.00;75.28;95366.53;5097641;28;20552;-77
2022/05/27 02:45:26;;;;;;;9.27;7.70;;;;;;;19.01;75.58;95367.38;5116598;28;20478;-77
2022/05/27 02:48:05;;;;;;;11.13;8.27;;;;;;;19.05;75.56;95364.19;5116259;28;20450;-77
2022/05/27 02:50:38;;;;;;;12.70;8.60;;;;;;;19.06;75.57;95365.84;5116652;28;20809;-77
2022/05/27 02:53:13;;;;;;;11.00;8.20;;;;;;;19.09;75.34;95368.19;5116470;28;20457;-77
2022/05/27 02:55:48;;;;;;;9.80;8.67;;;;;;;19.06;75.19;95371.16;5116437;28;20450;-77
2022/05/27 02:58:16;;;;;;;11.17;8.73;;;;;;;19.09;75.20;95365.53;5115860;28;20529;-77
2022/05/27 03:00:45;;;;;;;16.50;8.63;;;;;;;19.08;75.13;95363.88;5097145;28;20517;-77
2022/05/27 03:03:13;;;;;;;11.03;7.70;;;;;;;19.06;74.89;95375.66;5116107;28;20498;-77
2022/05/27 03:05:48;;;;;;;9.37;8.43;;;;;;;19.03;75.01;95366.19;5116054;28;20442;-77
2022/05/27 03:08:23;;;;;;;9.33;8.47;;;;;;;18.99;75.07;95372.84;5115827;28;20473;-77
2022/05/27 03:10:59;;;;;;;10.53;8.50;;;;;;;18.97;75.08;95374.03;5079896;28;20449;-77
2022/05/27 03:14:12;;;;;;;10.60;8.10;;;;;;;18.96;74.91;95370.53;5062877;28;20443;-77
2022/05/27 03:16:51;;;;;;;8.00;7.00;;;;;;;18.95;74.60;95368.06;5115372;28;20792;-78
2022/05/27 03:19:38;;;;;;;8.30;7.27;;;;;;;19.00;74.62;95371.84;5115663;28;20450;-78
2022/05/27 03:22:16;;;;;;;10.40;8.23;;;;;;;19.10;74.59;95385.00;5062676;28;20462;-78
2022/05/27 03:24:56;;;;;;;11.50;7.83;;;;;;;19.19;74.34;95376.81;5115575;28;20450;-77
2022/05/27 03:27:32;;;;;;;12.23;8.23;;;;;;;19.30;73.94;95377.44;5117104;27;20470;-77
2022/05/27 03:30:05;;;;;;;13.03;8.40;;;;;;;19.39;73.34;95382.56;5115703;28;20445;-77
2022/05/27 03:32:39;;;;;;;8.17;7.23;;;;;;;19.47;72.81;95379.03;5115644;28;20490;-79
2022/05/27 03:35:13;;;;;;;8.50;7.70;;;;;;;19.51;72.58;95380.34;5115502;28;20887;-76
2022/05/27 03:37:45;;;;;;;9.50;7.33;;;;;;;19.61;71.67;95380.16;5115742;28;20454;-79
2022/05/27 03:40:20;;;;;;;8.33;7.53;;;;;;;19.68;71.29;95383.81;5115364;28;20457;-77
2022/05/27 03:42:49;;;;;;;9.80;7.00;;;;;;;19.82;70.97;95380.41;5114814;28;20486;-78
2022/05/27 03:45:17;;;;;;;8.80;6.83;;;;;;;20.00;70.08;95380.13;5062520;28;20980;-79
2022/05/27 03:47:46;;;;;;;7.73;7.03;;;;;;;20.21;69.04;95374.16;5115636;28;20459;-79
2022/05/27 03:50:17;;;;;;;9.20;6.10;;;;;;;20.38;68.49;95368.53;5115430;28;20458;-79
2022/05/27 03:52:46;;;;;;;10.67;8.03;;;;;;;20.61;67.70;95379.22;5115162;28;20466;-78
2022/05/27 03:55:16;;;;;;;9.90;7.50;;;;;;;20.84;66.50;95381.84;5115361;28;20447;-78
2022/05/27 03:57:42;;;;;;;13.90;6.73;;;;;;;21.06;65.79;95382.78;5115547;28;20442;-78
2022/05/27 04:00:13;;;;;;;10.33;7.73;;;;;;;21.23;64.81;95378.13;5114967;28;20451;-78
2022/05/27 04:02:40;;;;;;;15.33;7.57;;;;;;;21.44;63.91;95380.94;5115278;28;20489;-79
2022/05/27 04:05:09;;;;;;;17.80;6.80;;;;;;;21.69;63.54;95383.31;5114830;28;20826;-78
2022/05/27 04:07:37;;;;;;;7.13;6.10;;;;;;;21.90;62.57;95378.81;5114803;28;20447;-78
2022/05/27 04:10:08;;;;;;;8.73;6.20;;;;;;;22.07;61.64;95375.97;5115223;28;20530;-78
2022/05/27 04:12:35;;;;;;;6.80;6.00;;;;;;;22.22;60.97;95374.06;5115210;28;20450;-78
2022/05/27 04:15:03;;;;;;;6.50;5.97;;;;;;;22.37;60.47;95371.34;5114710;28;20446;-78
2022/05/27 04:17:31;;;;;;;6.57;5.80;;;;;;;22.53;60.15;95368.38;5114546;28;20788;-78
2022/05/27 04:19:59;;;;;;;8.03;6.03;;;;;;;22.66;59.67;95371.19;5115014;28;20442;-79
2022/05/27 04:22:26;;;;;;;10.13;5.60;;;;;;;22.78;59.25;95369.66;5114500;28;20486;-79
2022/05/27 04:24:54;;;;;;;6.80;6.20;;;;;;;22.93;58.68;95374.13;5078859;28;20435;-79
2022/05/27 04:27:22;;;;;;;15.00;6.43;;;;;;;23.03;58.50;95372.75;5125022;27;20891;-79
2022/05/27 04:29:51;;;;;;;6.50;6.00;;;;;;;23.14;57.76;95368.72;5134986;27;20442;-79
2022/05/27 04:32:20;;;;;;;12.53;7.23;;;;;;;23.38;57.48;95376.28;5134802;27;20470;-79
2022/05/27 04:34:47;;;;;;;8.70;5.97;;;;;;;23.64;57.01;95364.91;5133808;27;20454;-79
2022/05/27 04:37:15;;;;;;;6.27;5.67;;;;;;;23.94;55.92;95370.81;5134713;27;20818;-79
2022/05/27 04:39:42;;;;;;;6.70;5.63;;;;;;;24.10;55.96;95373.13;5134558;27;20955;-79
2022/05/27 04:42:11;;;;;;;7.63;6.10;;;;;;;24.24;55.36;95365.13;5134675;27;20434;-79
2022/05/27 04:44:38;;;;;;;7.70;5.60;;;;;;;24.37;55.15;95366.00;5134894;27;20446;-79
2022/05/27 04:47:05;;;;;;;6.60;5.17;;;;;;;24.54;54.93;95366.44;5135208;27;20768;-79
2022/05/27 04:52:17;;;;;;;10.10;8.00;;;;;;;24.68;57.07;95373.47;5134629;27;20438;-79
2022/05/27 04:54:44;;;;;;;9.93;7.60;;;;;;;24.07;58.09;95373.53;5134307;27;20449;-79
2022/05/27 04:57:16;;;;;;;14.10;8.70;;;;;;;23.80;59.25;95369.13;5134583;27;20445;-79
2022/05/27 04:59:46;;;;;;;16.33;8.57;;;;;;;23.96;59.53;95384.00;5134518;27;20446;-79
2022/05/27 05:02:13;;;;;;;10.87;9.20;;;;;;;24.36;59.39;95374.28;5134716;27;20448;-80
2022/05/27 05:04:40;;;;;;;14.07;8.43;;;;;;;24.42;58.00;95370.75;5134731;27;20482;-80
2022/05/27 05:07:09;;;;;;;19.20;8.87;;;;;;;24.81;57.43;95371.81;5098248;27;20426;-80
2022/05/27 05:09:36;;;;;;;17.37;8.70;;;;;;;25.05;56.76;95373.94;5134530;27;20442;-81
2022/05/27 05:12:04;;;;;;;17.17;9.10;;;;;;;25.30;55.32;95380.31;5134844;27;20760;-80
2022/05/27 05:14:32;;;;;;;12.30;8.90;;;;;;;25.47;55.73;95372.63;5134662;27;20446;-80
2022/05/27 05:16:59;;;;;;;12.57;9.07;;;;;;;25.72;55.01;95370.09;5134365;27;20944;-84
2022/05/27 05:19:26;;;;;;;15.33;9.87;;;;;;;25.83;54.71;95369.44;5134681;27;20449;-82
2022/05/27 05:21:54;;;;;;;8.67;7.50;;;;;;;25.56;55.32;95370.53;5134972;27;20781;-81
2022/05/27 05:24:20;;;;;;;13.40;7.73;;;;;;;25.91;55.89;95368.38;5097767;27;20489;-81
2022/05/27 05:26:47;;;;;;;12.03;7.93;;;;;;;26.10;54.29;95366.66;5134215;27;20442;-82
2022/05/27 05:29:14;;;;;;;14.10;8.30;;;;;;;26.36;54.37;95369.22;5134445;27;20457;-80
2022/05/27 05:31:43;;;;;;;14.73;7.90;;;;;;;26.52;53.42;95370.56;5134351;27;20473;-81
2022/05/27 05:34:09;;;;;;;14.37;8.67;;;;;;;26.75;52.25;95359.22;5132354;27;20434;-80
2022/05/27 05:36:36;;;;;;;17.33;7.70;;;;;;;26.95;51.00;95367.16;5134091;27;20446;-80
2022/05/27 05:39:04;;;;;;;13.40;7.60;;;;;;;27.08;50.90;95367.88;5134255;27;20475;-81
2022/05/27 05:41:34;;;;;;;11.53;8.17;;;;;;;27.28;51.14;95370.41;5134379;27;20438;-81
2022/05/27 05:44:01;;;;;;;19.30;7.83;;;;;;;27.52;51.20;95363.31;5115764;28;20486;-80
2022/05/27 05:46:29;;;;;;;12.97;7.90;;;;;;;27.67;48.66;95363.81;5113559;28;20446;-81
2022/05/27 05:48:57;;;;;;;25.10;8.13;;;;;;;27.92;49.38;95365.59;5129771;28;20484;-81
2022/05/27 05:51:24;;;;;;;11.60;7.63;;;;;;;28.12;48.48;95366.19;5078335;28;20459;-80
2022/05/27 05:53:51;;;;;;;10.67;6.40;;;;;;;28.31;47.82;95365.09;5113864;28;20913;-82
2022/05/27 05:56:18;;;;;;;12.30;6.53;;;;;;;28.60;47.39;95365.31;5116765;28;20445;-80
2022/05/27 05:58:48;;;;;;;7.10;6.43;;;;;;;28.66;45.35;95364.41;5125730;28;20445;-81
2022/05/27 06:01:14;;;;;;;7.73;6.17;;;;;;;28.62;44.13;95360.50;5133944;28;20462;-81
2022/05/27 06:03:41;;;;;;;7.50;5.70;;;;;;;28.33;43.44;95356.78;5133352;28;20477;-80
2022/05/27 06:06:09;;;;;;;6.20;5.53;;;;;;;27.99;44.84;95369.03;5137326;27;20924;-81
2022/05/27 06:08:37;;;;;;;9.17;6.10;;;;;;;27.69;45.22;95364.41;5137698;27;20430;-81
2022/05/27 06:11:06;;;;;;;13.20;6.87;;;;;;;27.65;45.86;95363.19;5137559;27;20465;-81
2022/05/27 06:13:33;;;;;;;18.60;7.23;;;;;;;27.83;45.90;95366.97;5136670;27;20445;-81
2022/05/27 06:16:00;;;;;;;6.53;5.30;;;;;;;27.89;44.43;95360.66;5136703;27;20464;-81
2022/05/27 06:18:26;;;;;;;10.67;5.97;;;;;;;27.90;44.25;95365.00;5137278;27;20469;-81
2022/05/27 06:20:53;;;;;;;8.17;5.70;;;;;;;27.86;44.67;95366.50;5136836;27;20441;-81
2022/05/27 06:23:22;;;;;;;8.70;6.27;;;;;;;27.91;44.93;95361.25;5136738;27;20484;-81
2022/05/27 06:25:54;;;;;;;6.97;5.80;;;;;;;27.94;44.01;95363.50;5136651;27;20438;-81
2022/05/27 06:36:35;;;;;;;13.23;6.23;;;;;;;28.22;44.74;95350.25;5136418;27;20429;-81
2022/05/27 06:39:03;;;;;;;6.87;6.27;;;;;;;28.15;44.12;95354.09;5136253;27;20442;-81
2022/05/27 06:41:30;;;;;;;9.23;6.73;;;;;;;27.94;44.96;95358.09;5136625;27;20457;-81
2022/05/27 06:43:57;;;;;;;7.43;5.60;;;;;;;27.99;45.29;95353.66;5136082;27;20500;-81
2022/05/27 06:46:24;;;;;;;10.17;4.93;;;;;;;27.98;45.49;95352.00;5136609;27;20886;-81
2022/05/27 06:48:51;;;;;;;12.50;5.40;;;;;;;28.17;44.54;95341.19;5136195;27;20450;-81
2022/05/27 06:51:19;;;;;;;13.60;5.30;;;;;;;28.36;43.23;95348.25;5137209;27;20912;-81
2022/05/27 06:53:46;;;;;;;8.20;4.60;;;;;;;28.62;42.76;95347.00;5137269;27;20457;-81
2022/05/27 06:56:15;;;;;;;8.20;4.53;;;;;;;28.90;42.43;95338.28;5136975;27;20442;-81
2022/05/27 06:58:43;;;;;;;5.77;4.37;;;;;;;29.13;41.03;95337.50;5137281;27;20790;-81
2022/05/27 07:01:10;;;;;;;7.20;4.93;;;;;;;29.41;41.28;95334.06;5083837;27;20430;-81
2022/05/27 07:03:38;;;;;;;5.37;4.43;;;;;;;29.47;40.86;95333.97;5136724;27;20485;-81
2022/05/27 07:06:05;;;;;;;8.53;6.20;;;;;;;29.42;40.74;95330.31;5136572;27;20928;-80
2022/05/27 07:08:32;;;;;;;6.53;4.83;;;;;;;29.49;41.51;95329.19;5100578;27;20430;-81
2022/05/27 07:10:59;;;;;;;12.30;6.27;;;;;;;29.46;41.73;95329.63;5100771;27;20435;-81
2022/05/27 07:13:27;;;;;;;6.60;4.37;;;;;;;28.97;40.39;95325.50;5136727;27;20446;-80
2022/05/27 07:15:54;;;;;;;9.43;6.17;;;;;;;28.74;41.74;95326.25;5136203;27;20488;-80
2022/05/27 07:18:21;;;;;;;11.57;5.30;;;;;;;28.52;42.47;95322.44;5136304;27;20798;-81
2022/05/27 07:20:48;;;;;;;14.80;4.90;;;;;;;28.59;41.62;95323.16;5083718;27;20447;-81
2022/05/27 07:23:15;;;;;;;13.63;5.43;;;;;;;28.65;41.63;95314.97;5136741;27;20492;-81
2022/05/27 07:25:42;;;;;;;7.20;4.33;;;;;;;28.29;41.25;95312.41;5136757;27;20454;-81
2022/05/27 07:28:11;;;;;;;7.13;4.03;;;;;;;28.41;40.87;95312.44;5136516;27;20974;-81
2022/05/27 07:30:39;;;;;;;5.83;4.03;;;;;;;28.69;40.29;95309.94;5136069;27;20510;-80
2022/05/27 07:33:06;;;;;;;11.73;4.83;;;;;;;28.93;40.49;95308.13;5136255;27;20445;-81
2022/05/27 07:35:33;;;;;;;8.50;4.30;;;;;;;29.15;39.08;95309.16;5136255;27;20453;-81
2022/05/27 07:38:00;;;;;;;6.00;4.10;;;;;;;29.43;40.07;95302.22;5136031;27;20450;-81
2022/05/27 07:40:27;;;;;;;15.83;4.80;;;;;;;29.68;38.79;95310.91;5136320;27;20453;-81
2022/05/27 07:42:54;;;;;;;6.60;4.40;;;;;;;29.80;38.13;95297.34;5134675;27;20442;-81
2022/05/27 07:45:26;;;;;;;8.73;5.33;;;;;;;29.94;38.98;95289.78;5135213;27;20504;-81
2022/05/27 07:47:54;;;;;;;7.77;4.00;;;;;;;30.13;38.59;95286.69;5136123;27;20442;-81
2022/05/27 07:50:22;;;;;;;5.60;4.57;;;;;;;30.37;38.64;95276.56;5136081;27;21250;-81
2022/05/27 07:52:49;;;;;;;5.57;5.07;;;;;;;30.27;37.68;95270.94;5136005;27;20475;-82
2022/05/27 07:55:16;;;;;;;7.30;4.80;;;;;;;30.37;37.58;95281.16;5135780;27;20478;-81
2022/05/27 07:57:43;;;;;;;6.13;4.40;;;;;;;30.53;37.39;95272.22;5136086;27;20438;-81
2022/05/27 08:00:13;;;;;;;7.53;5.10;;;;;;;30.52;39.30;95273.28;5136260;27;20442;-81
2022/05/27 08:02:41;;;;;;;12.13;5.10;;;;;;;30.50;38.59;95273.53;5136174;27;20438;-81
2022/05/27 08:05:12;;;;;;;8.87;5.50;;;;;;;30.56;38.83;95279.03;5135572;27;20568;-81
2022/05/27 08:07:40;;;;;;;13.33;5.10;;;;;;;30.60;38.44;95277.47;5134997;27;20453;-81
2022/05/27 08:10:08;;;;;;;6.83;5.10;;;;;;;30.36;38.44;95268.66;5134621;27;20987;-81
2022/05/27 08:12:35;;;;;;;9.50;4.57;;;;;;;30.09;38.64;95274.69;5135032;27;20449;-81
2022/05/27 08:15:02;;;;;;;13.43;5.10;;;;;;;30.11;38.48;95274.44;5134389;27;20944;-81
2022/05/27 08:17:29;;;;;;;7.57;5.40;;;;;;;29.63;38.97;95264.81;5134943;27;20438;-81
2022/05/27 08:19:56;;;;;;;7.53;6.10;;;;;;;29.69;38.79;95260.31;5134489;27;20449;-81
2022/05/27 08:22:25;;;;;;;9.20;5.20;;;;;;;29.66;39.17;95258.91;5134434;27;20441;-81
2022/05/27 08:24:51;;;;;;;14.03;4.90;;;;;;;29.27;39.31;95263.22;5134284;27;20745;-81
2022/05/27 08:27:18;;;;;;;7.60;5.60;;;;;;;29.13;39.81;95259.94;5134332;27;20950;-81
2022/05/27 08:29:45;;;;;;;5.53;4.50;;;;;;;29.02;40.12;95260.75;5134266;27;20444;-81
2022/05/27 08:32:12;;;;;;;21.17;5.67;;;;;;;29.19;41.83;95253.56;5134373;27;20474;-81
2022/05/27 08:40:23;;;;;;;8.40;5.20;;;;;;;30.07;37.85;95238.91;5133978;27;20506;-81
2022/05/27 08:43:01;;;;;;;6.70;5.13;;;;;;;30.19;38.30;95242.38;5134088;27;20437;-81
2022/05/27 08:45:33;;;;;;;12.20;6.37;;;;;;;30.12;37.85;95236.31;5133629;27;21060;-81
2022/05/27 08:48:04;;;;;;;10.63;6.20;;;;;;;29.81;38.69;95240.28;5133505;27;20453;-81
2022/05/27 08:50:37;;;;;;;7.93;5.23;;;;;;;29.86;37.66;95239.56;5134983;27;20514;-81
2022/05/27 08:53:14;;;;;;;9.93;5.90;;;;;;;29.80;37.38;95230.53;5134388;27;20434;-80
2022/05/27 09:01:21;;;;;;;12.37;5.00;;;;;;;29.68;38.18;95228.91;5114019;28;20435;-81
2022/05/27 09:03:55;;;;;;;9.10;5.60;;;;;;;29.77;37.18;95231.00;5113688;28;20435;-81
2022/05/27 09:06:32;;;;;;;10.50;5.23;;;;;;;29.88;37.29;95223.91;5114046;28;20447;-81
2022/05/27 09:09:02;;;;;;;9.60;4.97;;;;;;;29.75;37.29;95218.78;5061841;28;20439;-81
2022/05/27 09:11:43;;;;;;;6.53;4.90;;;;;;;29.79;36.97;95222.66;5113654;28;20447;-81
2022/05/27 09:14:14;;;;;;;12.53;5.03;;;;;;;29.92;36.81;95215.06;5113646;28;20925;-81
2022/05/27 09:16:50;;;;;;;6.73;4.73;;;;;;;29.94;37.47;95209.41;5114111;28;20913;-81
2022/05/27 09:19:26;;;;;;;6.50;5.60;;;;;;;29.64;36.38;95219.66;5114089;28;20448;-83
2022/05/27 09:22:01;;;;;;;5.50;5.00;;;;;;;29.42;37.98;95214.84;5114297;28;20450;-82
2022/05/27 09:24:42;;;;;;;7.23;5.70;;;;;;;29.11;39.61;95209.88;5128537;27;20479;-81
2022/05/27 09:27:13;;;;;;;12.20;5.27;;;;;;;29.13;41.17;95216.69;5128025;27;20439;-82
2022/05/27 09:30:01;;;;;;;8.57;4.60;;;;;;;29.16;38.41;95216.19;5113645;28;20447;-79
2022/05/27 09:32:32;;;;;;;9.93;5.47;;;;;;;29.26;39.42;95211.03;5113545;28;20481;-80
2022/05/27 09:35:07;;;;;;;8.03;5.20;;;;;;;29.41;38.32;95201.56;5113909;28;20450;-80
2022/05/27 09:37:38;;;;;;;8.30;4.70;;;;;;;29.54;39.27;95199.47;5113747;28;20446;-81
2022/05/27 09:40:14;;;;;;;11.30;5.97;;;;;;;29.52;38.67;95193.47;5113190;28;20450;-79
2022/05/27 09:42:47;;;;;;;7.60;5.37;;;;;;;29.60;38.92;95190.38;5114071;28;20799;-81
2022/05/27 09:45:14;;;;;;;8.20;5.03;;;;;;;29.26;38.22;95183.16;5113678;28;20489;-81
2022/05/27 09:47:41;;;;;;;11.60;4.73;;;;;;;29.23;39.47;95178.25;5114234;28;20450;-81
2022/05/27 09:50:25;;;;;;;7.97;5.60;;;;;;;29.25;40.44;95182.34;5114093;28;20442;-83
2022/05/27 09:52:56;;;;;;;7.07;5.37;;;;;;;29.24;40.60;95169.06;5114116;28;20447;-82
2022/05/27 09:55:29;;;;;;;9.60;6.07;;;;;;;29.23;40.75;95170.97;5133041;28;20978;-82
2022/05/27 09:57:58;;;;;;;14.43;5.60;;;;;;;29.01;40.67;95161.00;5134130;28;20441;-82
2022/05/27 10:00:43;;;;;;;12.77;6.20;;;;;;;28.96;40.32;95159.84;5134180;28;20550;-82
2022/05/27 10:03:38;;;;;;;6.67;5.70;;;;;;;29.01;39.48;95153.72;5134443;28;20446;-82
2022/05/27 10:06:08;;;;;;;14.90;5.60;;;;;;;29.08;42.51;95149.00;5090966;28;20585;-81
2022/05/27 10:08:40;;;;;;;7.50;6.10;;;;;;;29.21;41.79;95147.94;5090966;28;20448;-81
2022/05/27 10:11:20;;;;;;;8.60;5.60;;;;;;;29.09;39.77;95150.66;5090936;28;20435;-79
2022/05/27 10:13:48;;;;;;;13.10;6.43;;;;;;;29.09;39.80;95142.53;5090840;28;20440;-79
2022/05/27 10:16:24;;;;;;;8.30;5.77;;;;;;;28.98;39.30;95141.53;5090522;28;20439;-80
2022/05/27 10:19:06;;;;;;;7.83;4.93;;;;;;;28.92;41.38;95133.56;5090576;28;20440;-80
2022/05/27 10:21:34;;;;;;;8.17;4.97;;;;;;;29.11;41.52;95128.78;5090533;28;20440;-80
2022/05/27 10:24:16;;;;;;;7.53;5.60;;;;;;;29.23;41.26;95133.13;5090145;28;20537;-80
2022/05/27 10:26:45;;;;;;;11.00;5.33;;;;;;;29.26;40.79;95124.53;5074007;28;20463;-80
2022/05/27 10:29:14;;;;;;;13.80;6.30;;;;;;;29.43;39.01;95123.72;5090285;28;20485;-80
2022/05/27 10:31:51;;;;;;;13.03;6.63;;;;;;;29.37;39.66;95111.19;5090052;28;20488;-79
2022/05/27 10:34:39;;;;;;;8.67;5.93;;;;;;;29.45;39.48;95108.94;5090305;28;20446;-80
2022/05/27 10:37:09;;;;;;;11.53;5.90;;;;;;;29.47;39.53;95109.50;5090380;28;20582;-80
2022/05/27 10:39:44;;;;;;;11.20;6.03;;;;;;;29.58;39.44;95100.53;5089415;28;20463;-79
2022/05/27 10:42:28;;;;;;;11.60;5.30;;;;;;;29.29;39.28;95096.19;5116164;28;20781;-80
2022/05/27 10:45:16;;;;;;;9.33;5.47;;;;;;;29.38;38.66;95102.84;5131857;28;20994;-79
2022/05/27 10:48:15;;;;;;;8.60;5.10;;;;;;;29.26;39.39;95100.19;5070298;28;20448;-80
2022/05/27 10:50:48;;;;;;;12.53;6.27;;;;;;;29.28;39.88;95089.13;5035155;28;20802;-80
2022/05/27 10:53:57;;;;;;;10.63;5.27;;;;;;;29.24;40.36;95093.38;5043330;28;20461;-80
2022/05/27 10:56:41;;;;;;;8.60;6.00;;;;;;;29.34;43.15;95077.34;4905701;29;20460;-80
2022/05/27 11:02:44;;;;;;;17.87;5.27;;;;;;;29.54;39.11;95063.41;4839685;29;20438;-81
2022/05/27 11:05:24;;;;;;;5.90;4.33;;;;;;;29.55;37.87;95073.16;4843210;29;20495;-83
2022/05/27 11:08:08;;;;;;;12.60;6.00;;;;;;;29.50;39.40;95071.19;4842866;29;20459;-81
2022/05/27 11:10:44;;;;;;;7.33;4.63;;;;;;;29.50;39.95;95064.97;4841899;29;20452;-81
2022/05/27 11:16:39;;;;;;;10.60;4.67;;;;;;;29.60;38.46;95070.53;4787014;30;20485;-81
2022/05/27 11:19:28;;;;;;;5.13;4.60;;;;;;;29.48;36.53;95051.66;4786937;30;20471;-81
2022/05/27 11:22:08;;;;;;;13.97;4.93;;;;;;;29.38;37.35;95046.06;4787165;30;20494;-81
2022/05/27 11:25:02;;;;;;;9.30;4.37;;;;;;;29.40;36.89;95053.91;4786987;30;20539;-81
2022/05/27 11:27:42;;;;;;;10.27;5.10;;;;;;;29.53;37.01;95046.38;4803335;29;20596;-81
2022/05/27 11:30:26;;;;;;;11.37;4.60;;;;;;;29.65;38.11;95035.47;4823912;29;20455;-81
2022/05/27 11:33:13;;;;;;;8.13;3.97;;;;;;;29.73;36.54;95026.94;4901818;29;20494;-81
2022/05/27 11:35:56;;;;;;;5.60;4.10;;;;;;;29.85;35.93;95024.16;4955107;29;20473;-81
2022/05/27 11:38:35;;;;;;;8.53;4.40;;;;;;;29.97;37.52;95013.25;5011644;28;21184;-81
2022/05/27 11:41:15;;;;;;;10.07;4.40;;;;;;;29.87;36.23;95011.19;5053045;28;20445;-81
2022/05/27 11:43:48;;;;;;;7.30;4.20;;;;;;;29.69;35.94;95014.97;5052718;28;20442;-81
2022/05/27 11:46:33;;;;;;;8.03;5.00;;;;;;;29.51;35.07;95002.53;5052956;28;20485;-81
2022/05/27 11:49:18;;;;;;;15.53;5.37;;;;;;;29.48;38.32;94997.56;5053074;28;20449;-81
2022/05/27 11:51:57;;;;;;;12.80;5.67;;;;;;;29.47;38.68;94992.41;5052685;28;20836;-81
2022/05/27 11:54:41;;;;;;;8.53;4.57;;;;;;;29.57;38.24;94988.00;5136073;27;20464;-81
2022/05/27 11:57:21;;;;;;;7.60;5.20;;;;;;;29.77;38.27;94983.97;5136332;27;20457;-81
2022/05/27 11:59:54;;;;;;;10.13;5.50;;;;;;;29.87;37.68;94986.84;5100014;27;20434;-81
2022/05/27 12:02:34;;;;;;;7.73;5.03;;;;;;;29.99;37.07;94971.31;5135544;27;20449;-81
2022/05/27 12:05:10;;;;;;;11.80;5.00;;;;;;;30.12;38.22;94967.50;5136101;27;20509;-81
2022/05/27 12:07:42;;;;;;;10.93;5.63;;;;;;;30.23;38.09;94968.44;5100918;27;20803;-81
2022/05/27 12:10:20;;;;;;;9.80;4.43;;;;;;;30.21;37.26;94961.38;5135707;27;20494;-81
2022/05/27 12:12:52;;;;;;;10.93;5.30;;;;;;;30.29;37.87;94956.59;5135771;27;20457;-81
2022/05/27 12:15:25;;;;;;;8.90;4.87;;;;;;;30.41;37.85;94952.72;5136176;27;20449;-80
2022/05/27 12:17:54;;;;;;;6.17;4.73;;;;;;;30.40;37.71;94956.50;5135929;27;20446;-80
2022/05/27 12:20:29;;;;;;;9.90;5.80;;;;;;;30.21;36.29;94950.56;5135396;27;20526;-81